Kingaroy, Australia
Current Conditions -  °F | °C
As of 6:00 PM on Wednesday 26 Nov 2014 (Local Time) from YBOK Reporting Station
Overcast Overcast  
Wind Chill: 73°   Ceiling: 30000
Heat Index: 73°   Visibility: 6mi
Dew Point: 57°   Wind: 7mph
Humidity: 57%   Direction: 170°S
Pressure: 30.03"   Gusts: NA
Location:  26.54°S, 151.84°E
Report Text: YBOK 260800Z 17006KT 9999 FEW050CB SCT075 OVC300 23/14 Q1017 TEMPO 0800/0900 VRB20G35KT 3000 TSRA BKN020 SCT050CB
Loading
Personal Weather Stations






























Interactive Weather Map New forecast layout! Learn more

10-Day Weather Forecast

Advertisements
Track Severe Weather on mobile